sensor_id;sensor_type;location;lat;lon;timestamp;P1;durP1;ratioP1;P2;durP2;ratioP2
22812;SDS011;11573;51.334;3.244;2023-06-14T00:00:33;12.20;;;5.05;;
22812;SDS011;11573;51.334;3.244;2023-06-14T00:03:01;7.15;;;4.47;;
22812;SDS011;11573;51.334;3.244;2023-06-14T00:05:30;10.65;;;5.00;;
22812;SDS011;11573;51.334;3.244;2023-06-14T00:08:00;10.38;;;4.28;;
22812;SDS011;11573;51.334;3.244;2023-06-14T00:10:27;9.93;;;4.03;;
22812;SDS011;11573;51.334;3.244;2023-06-14T00:12:57;10.52;;;4.72;;
22812;SDS011;11573;51.334;3.244;2023-06-14T00:15:26;5.55;;;4.13;;
22812;SDS011;11573;51.334;3.244;2023-06-14T00:17:53;7.07;;;4.30;;
22812;SDS011;11573;51.334;3.244;2023-06-14T00:20:21;7.78;;;4.38;;
22812;SDS011;11573;51.334;3.244;2023-06-14T00:22:49;10.30;;;4.15;;
22812;SDS011;11573;51.334;3.244;2023-06-14T00:25:16;12.27;;;4.55;;
22812;SDS011;11573;51.334;3.244;2023-06-14T00:27:54;7.45;;;3.80;;
22812;SDS011;11573;51.334;3.244;2023-06-14T00:30:22;5.72;;;4.00;;
22812;SDS011;11573;51.334;3.244;2023-06-14T00:32:50;5.57;;;3.92;;
22812;SDS011;11573;51.334;3.244;2023-06-14T00:35:18;7.13;;;4.10;;
22812;SDS011;11573;51.334;3.244;2023-06-14T00:37:45;10.80;;;4.30;;
22812;SDS011;11573;51.334;3.244;2023-06-14T00:40:12;4.88;;;4.22;;
22812;SDS011;11573;51.334;3.244;2023-06-14T00:42:40;9.85;;;4.50;;
22812;SDS011;11573;51.334;3.244;2023-06-14T00:45:09;6.28;;;4.22;;
22812;SDS011;11573;51.334;3.244;2023-06-14T00:47:36;6.15;;;3.88;;
22812;SDS011;11573;51.334;3.244;2023-06-14T00:50:08;8.35;;;4.13;;
22812;SDS011;11573;51.334;3.244;2023-06-14T00:52:36;7.95;;;4.32;;
22812;SDS011;11573;51.334;3.244;2023-06-14T00:55:03;6.70;;;4.05;;
22812;SDS011;11573;51.334;3.244;2023-06-14T00:57:31;7.90;;;4.60;;
22812;SDS011;11573;51.334;3.244;2023-06-14T00:59:58;8.95;;;4.15;;
22812;SDS011;11573;51.334;3.244;2023-06-14T01:02:25;6.82;;;4.38;;
22812;SDS011;11573;51.334;3.244;2023-06-14T01:04:52;6.22;;;4.10;;
22812;SDS011;11573;51.334;3.244;2023-06-14T01:07:25;6.10;;;4.38;;
22812;SDS011;11573;51.334;3.244;2023-06-14T01:13:15;4.93;;;3.72;;
22812;SDS011;11573;51.334;3.244;2023-06-14T01:15:55;7.50;;;4.10;;
22812;SDS011;11573;51.334;3.244;2023-06-14T01:18:23;8.73;;;4.03;;
22812;SDS011;11573;51.334;3.244;2023-06-14T01:20:53;8.23;;;4.63;;
22812;SDS011;11573;51.334;3.244;2023-06-14T01:23:23;7.72;;;4.22;;
22812;SDS011;11573;51.334;3.244;2023-06-14T01:25:51;5.88;;;4.47;;
22812;SDS011;11573;51.334;3.244;2023-06-14T01:28:20;9.73;;;4.57;;
22812;SDS011;11573;51.334;3.244;2023-06-14T01:30:59;7.07;;;4.78;;
22812;SDS011;11573;51.334;3.244;2023-06-14T01:33:32;8.90;;;4.22;;
22812;SDS011;11573;51.334;3.244;2023-06-14T01:36:00;8.95;;;4.20;;
22812;SDS011;11573;51.334;3.244;2023-06-14T01:38:29;10.18;;;5.10;;
22812;SDS011;11573;51.334;3.244;2023-06-14T01:40:57;8.13;;;4.20;;
22812;SDS011;11573;51.334;3.244;2023-06-14T01:43:26;7.57;;;4.13;;
22812;SDS011;11573;51.334;3.244;2023-06-14T01:45:55;7.65;;;4.25;;
22812;SDS011;11573;51.334;3.244;2023-06-14T01:48:23;5.57;;;4.32;;
22812;SDS011;11573;51.334;3.244;2023-06-14T01:50:50;10.85;;;5.00;;
22812;SDS011;11573;51.334;3.244;2023-06-14T01:53:19;8.55;;;4.40;;
22812;SDS011;11573;51.334;3.244;2023-06-14T01:55:46;8.38;;;4.20;;
22812;SDS011;11573;51.334;3.244;2023-06-14T01:58:15;8.82;;;4.60;;
22812;SDS011;11573;51.334;3.244;2023-06-14T02:00:43;8.48;;;4.28;;
22812;SDS011;11573;51.334;3.244;2023-06-14T02:03:10;7.80;;;4.38;;
22812;SDS011;11573;51.334;3.244;2023-06-14T02:05:38;9.15;;;4.75;;
22812;SDS011;11573;51.334;3.244;2023-06-14T02:08:06;8.40;;;4.07;;
22812;SDS011;11573;51.334;3.244;2023-06-14T02:10:33;7.15;;;4.10;;
22812;SDS011;11573;51.334;3.244;2023-06-14T02:13:02;6.75;;;4.13;;
22812;SDS011;11573;51.334;3.244;2023-06-14T02:15:29;7.88;;;4.38;;
22812;SDS011;11573;51.334;3.244;2023-06-14T02:18:04;7.57;;;4.03;;
22812;SDS011;11573;51.334;3.244;2023-06-14T02:20:32;7.47;;;4.75;;
22812;SDS011;11573;51.334;3.244;2023-06-14T02:22:59;11.35;;;4.80;;
22812;SDS011;11573;51.334;3.244;2023-06-14T02:25:30;6.88;;;4.22;;
22812;SDS011;11573;51.334;3.244;2023-06-14T02:27:57;7.75;;;4.38;;
22812;SDS011;11573;51.334;3.244;2023-06-14T02:30:24;9.95;;;4.32;;
22812;SDS011;11573;51.334;3.244;2023-06-14T02:32:55;7.57;;;4.88;;
22812;SDS011;11573;51.334;3.244;2023-06-14T02:35:23;5.85;;;4.28;;
22812;SDS011;11573;51.334;3.244;2023-06-14T02:37:54;8.57;;;4.47;;
22812;SDS011;11573;51.334;3.244;2023-06-14T02:40:22;6.20;;;4.13;;
22812;SDS011;11573;51.334;3.244;2023-06-14T02:42:49;7.20;;;4.32;;
22812;SDS011;11573;51.334;3.244;2023-06-14T02:45:16;11.00;;;4.85;;
22812;SDS011;11573;51.334;3.244;2023-06-14T02:47:44;10.15;;;4.85;;
22812;SDS011;11573;51.334;3.244;2023-06-14T02:50:12;9.73;;;4.70;;
22812;SDS011;11573;51.334;3.244;2023-06-14T02:52:40;6.68;;;4.65;;
22812;SDS011;11573;51.334;3.244;2023-06-14T02:55:10;7.60;;;4.38;;
22812;SDS011;11573;51.334;3.244;2023-06-14T02:57:38;9.32;;;4.40;;
22812;SDS011;11573;51.334;3.244;2023-06-14T03:00:07;8.15;;;4.45;;
22812;SDS011;11573;51.334;3.244;2023-06-14T03:02:41;9.73;;;4.78;;
22812;SDS011;11573;51.334;3.244;2023-06-14T03:05:10;8.20;;;5.43;;
22812;SDS011;11573;51.334;3.244;2023-06-14T03:07:37;7.15;;;4.50;;
22812;SDS011;11573;51.334;3.244;2023-06-14T03:10:08;6.53;;;4.38;;
22812;SDS011;11573;51.334;3.244;2023-06-14T03:12:39;8.63;;;4.85;;
22812;SDS011;11573;51.334;3.244;2023-06-14T03:15:07;8.38;;;4.43;;
22812;SDS011;11573;51.334;3.244;2023-06-14T03:17:38;6.03;;;4.40;;
22812;SDS011;11573;51.334;3.244;2023-06-14T03:20:07;6.50;;;4.45;;
22812;SDS011;11573;51.334;3.244;2023-06-14T03:22:35;5.60;;;4.47;;
22812;SDS011;11573;51.334;3.244;2023-06-14T03:25:02;6.78;;;4.72;;
22812;SDS011;11573;51.334;3.244;2023-06-14T03:27:34;9.07;;;4.57;;
22812;SDS011;11573;51.334;3.244;2023-06-14T03:30:01;7.97;;;4.20;;
22812;SDS011;11573;51.334;3.244;2023-06-14T03:32:31;10.40;;;4.60;;
22812;SDS011;11573;51.334;3.244;2023-06-14T03:35:01;8.43;;;4.13;;
22812;SDS011;11573;51.334;3.244;2023-06-14T03:37:28;7.30;;;4.50;;
22812;SDS011;11573;51.334;3.244;2023-06-14T03:39:55;11.05;;;4.65;;
22812;SDS011;11573;51.334;3.244;2023-06-14T03:42:24;9.48;;;4.65;;
22812;SDS011;11573;51.334;3.244;2023-06-14T03:44:52;7.13;;;4.78;;
22812;SDS011;11573;51.334;3.244;2023-06-14T03:47:21;6.53;;;4.32;;
22812;SDS011;11573;51.334;3.244;2023-06-14T03:49:48;7.53;;;5.07;;
22812;SDS011;11573;51.334;3.244;2023-06-14T03:52:16;9.48;;;4.35;;
22812;SDS011;11573;51.334;3.244;2023-06-14T03:54:45;6.07;;;4.43;;
22812;SDS011;11573;51.334;3.244;2023-06-14T03:57:17;7.32;;;5.03;;
22812;SDS011;11573;51.334;3.244;2023-06-14T03:59:45;9.65;;;5.25;;
22812;SDS011;11573;51.334;3.244;2023-06-14T04:02:13;11.93;;;4.85;;
22812;SDS011;11573;51.334;3.244;2023-06-14T04:04:44;6.00;;;4.55;;
22812;SDS011;11573;51.334;3.244;2023-06-14T04:07:12;8.48;;;5.03;;
22812;SDS011;11573;51.334;3.244;2023-06-14T04:09:39;7.15;;;4.60;;
22812;SDS011;11573;51.334;3.244;2023-06-14T04:12:07;6.80;;;4.50;;
22812;SDS011;11573;51.334;3.244;2023-06-14T04:14:39;8.23;;;4.75;;
22812;SDS011;11573;51.334;3.244;2023-06-14T04:17:08;7.47;;;4.72;;
22812;SDS011;11573;51.334;3.244;2023-06-14T04:19:37;11.38;;;4.55;;
22812;SDS011;11573;51.334;3.244;2023-06-14T04:22:04;8.00;;;4.28;;
22812;SDS011;11573;51.334;3.244;2023-06-14T04:24:34;5.55;;;4.43;;
22812;SDS011;11573;51.334;3.244;2023-06-14T04:27:02;8.52;;;4.55;;
22812;SDS011;11573;51.334;3.244;2023-06-14T04:29:30;5.18;;;4.38;;
22812;SDS011;11573;51.334;3.244;2023-06-14T04:32:03;7.85;;;4.20;;
22812;SDS011;11573;51.334;3.244;2023-06-14T04:34:32;8.75;;;4.43;;
22812;SDS011;11573;51.334;3.244;2023-06-14T04:37:01;9.20;;;4.32;;
22812;SDS011;11573;51.334;3.244;2023-06-14T04:39:35;10.40;;;4.55;;
22812;SDS011;11573;51.334;3.244;2023-06-14T04:42:02;6.30;;;4.85;;
22812;SDS011;11573;51.334;3.244;2023-06-14T04:44:30;6.35;;;4.38;;
22812;SDS011;11573;51.334;3.244;2023-06-14T04:47:02;7.65;;;4.45;;
22812;SDS011;11573;51.334;3.244;2023-06-14T04:49:30;6.85;;;4.00;;
22812;SDS011;11573;51.334;3.244;2023-06-14T04:51:59;8.45;;;5.03;;
22812;SDS011;11573;51.334;3.244;2023-06-14T04:54:33;6.50;;;4.47;;
22812;SDS011;11573;51.334;3.244;2023-06-14T04:57:07;10.95;;;4.53;;
22812;SDS011;11573;51.334;3.244;2023-06-14T04:59:46;7.00;;;4.78;;
22812;SDS011;11573;51.334;3.244;2023-06-14T05:02:13;8.65;;;4.07;;
22812;SDS011;11573;51.334;3.244;2023-06-14T05:04:40;7.13;;;4.53;;
22812;SDS011;11573;51.334;3.244;2023-06-14T05:07:08;5.88;;;4.57;;
22812;SDS011;11573;51.334;3.244;2023-06-14T05:09:36;7.85;;;4.28;;
22812;SDS011;11573;51.334;3.244;2023-06-14T05:12:03;6.85;;;4.43;;
22812;SDS011;11573;51.334;3.244;2023-06-14T05:14:30;8.55;;;4.60;;
22812;SDS011;11573;51.334;3.244;2023-06-14T05:16:57;7.47;;;4.57;;
22812;SDS011;11573;51.334;3.244;2023-06-14T05:19:24;7.53;;;4.20;;
22812;SDS011;11573;51.334;3.244;2023-06-14T05:21:51;7.47;;;4.30;;
22812;SDS011;11573;51.334;3.244;2023-06-14T05:24:19;9.85;;;5.15;;
22812;SDS011;11573;51.334;3.244;2023-06-14T05:26:47;6.82;;;4.25;;
22812;SDS011;11573;51.334;3.244;2023-06-14T05:29:15;7.00;;;4.28;;
22812;SDS011;11573;51.334;3.244;2023-06-14T05:31:42;10.80;;;4.72;;
22812;SDS011;11573;51.334;3.244;2023-06-14T05:34:11;7.40;;;4.65;;
22812;SDS011;11573;51.334;3.244;2023-06-14T05:36:38;8.75;;;4.85;;
22812;SDS011;11573;51.334;3.244;2023-06-14T05:39:05;11.57;;;5.00;;
22812;SDS011;11573;51.334;3.244;2023-06-14T05:41:33;9.85;;;4.82;;
22812;SDS011;11573;51.334;3.244;2023-06-14T05:44:00;7.88;;;5.05;;
22812;SDS011;11573;51.334;3.244;2023-06-14T05:46:28;7.35;;;4.75;;
22812;SDS011;11573;51.334;3.244;2023-06-14T05:48:55;10.38;;;5.15;;
22812;SDS011;11573;51.334;3.244;2023-06-14T05:51:22;7.45;;;4.20;;
22812;SDS011;11573;51.334;3.244;2023-06-14T05:53:52;5.65;;;4.30;;
22812;SDS011;11573;51.334;3.244;2023-06-14T05:56:19;9.52;;;4.90;;
22812;SDS011;11573;51.334;3.244;2023-06-14T05:58:46;9.25;;;5.22;;
22812;SDS011;11573;51.334;3.244;2023-06-14T06:01:14;7.75;;;5.13;;
22812;SDS011;11573;51.334;3.244;2023-06-14T06:03:41;8.35;;;4.72;;
22812;SDS011;11573;51.334;3.244;2023-06-14T06:06:12;11.30;;;5.40;;
22812;SDS011;11573;51.334;3.244;2023-06-14T06:08:40;7.55;;;4.78;;
22812;SDS011;11573;51.334;3.244;2023-06-14T06:11:07;9.32;;;5.15;;
22812;SDS011;11573;51.334;3.244;2023-06-14T06:13:34;7.82;;;5.18;;
22812;SDS011;11573;51.334;3.244;2023-06-14T06:16:02;6.45;;;4.65;;
22812;SDS011;11573;51.334;3.244;2023-06-14T06:18:29;10.20;;;5.15;;
22812;SDS011;11573;51.334;3.244;2023-06-14T06:20:57;8.90;;;5.32;;
22812;SDS011;11573;51.334;3.244;2023-06-14T06:23:24;9.43;;;5.38;;
22812;SDS011;11573;51.334;3.244;2023-06-14T06:25:51;6.75;;;5.13;;
22812;SDS011;11573;51.334;3.244;2023-06-14T06:28:18;10.18;;;5.05;;
22812;SDS011;11573;51.334;3.244;2023-06-14T06:30:45;5.78;;;4.72;;
22812;SDS011;11573;51.334;3.244;2023-06-14T06:33:13;6.53;;;4.68;;
22812;SDS011;11573;51.334;3.244;2023-06-14T06:35:40;10.20;;;5.20;;
22812;SDS011;11573;51.334;3.244;2023-06-14T06:38:08;7.63;;;5.10;;
22812;SDS011;11573;51.334;3.244;2023-06-14T06:40:36;9.75;;;5.57;;
22812;SDS011;11573;51.334;3.244;2023-06-14T06:43:03;10.45;;;5.35;;
22812;SDS011;11573;51.334;3.244;2023-06-14T06:45:38;7.93;;;5.50;;
22812;SDS011;11573;51.334;3.244;2023-06-14T06:48:06;8.07;;;5.40;;
22812;SDS011;11573;51.334;3.244;2023-06-14T06:50:33;7.72;;;4.95;;
22812;SDS011;11573;51.334;3.244;2023-06-14T06:53:00;10.75;;;5.40;;
22812;SDS011;11573;51.334;3.244;2023-06-14T06:55:27;6.72;;;5.50;;
22812;SDS011;11573;51.334;3.244;2023-06-14T06:57:54;10.48;;;5.35;;
22812;SDS011;11573;51.334;3.244;2023-06-14T07:00:21;7.55;;;5.40;;
22812;SDS011;11573;51.334;3.244;2023-06-14T07:02:48;8.27;;;5.97;;
22812;SDS011;11573;51.334;3.244;2023-06-14T07:05:15;9.95;;;5.53;;
22812;SDS011;11573;51.334;3.244;2023-06-14T07:07:43;6.80;;;5.35;;
22812;SDS011;11573;51.334;3.244;2023-06-14T07:10:10;13.82;;;6.10;;
22812;SDS011;11573;51.334;3.244;2023-06-14T07:12:37;12.23;;;6.05;;
22812;SDS011;11573;51.334;3.244;2023-06-14T07:15:09;11.90;;;5.68;;
22812;SDS011;11573;51.334;3.244;2023-06-14T07:17:36;8.30;;;5.95;;
22812;SDS011;11573;51.334;3.244;2023-06-14T07:20:04;9.82;;;6.07;;
22812;SDS011;11573;51.334;3.244;2023-06-14T07:22:41;8.70;;;6.40;;
22812;SDS011;11573;51.334;3.244;2023-06-14T07:25:09;12.88;;;5.97;;
22812;SDS011;11573;51.334;3.244;2023-06-14T07:27:41;8.43;;;5.95;;
22812;SDS011;11573;51.334;3.244;2023-06-14T07:30:09;6.47;;;5.32;;
22812;SDS011;11573;51.334;3.244;2023-06-14T07:32:36;11.10;;;6.07;;
22812;SDS011;11573;51.334;3.244;2023-06-14T07:35:04;7.70;;;5.72;;
22812;SDS011;11573;51.334;3.244;2023-06-14T07:37:31;10.90;;;6.20;;
22812;SDS011;11573;51.334;3.244;2023-06-14T07:39:58;8.43;;;5.95;;
22812;SDS011;11573;51.334;3.244;2023-06-14T07:42:25;11.73;;;6.40;;
22812;SDS011;11573;51.334;3.244;2023-06-14T07:44:52;10.68;;;5.97;;
22812;SDS011;11573;51.334;3.244;2023-06-14T07:47:20;10.85;;;6.28;;
22812;SDS011;11573;51.334;3.244;2023-06-14T07:49:47;7.88;;;5.50;;
22812;SDS011;11573;51.334;3.244;2023-06-14T07:52:14;8.63;;;5.47;;
22812;SDS011;11573;51.334;3.244;2023-06-14T07:54:41;8.77;;;5.28;;
22812;SDS011;11573;51.334;3.244;2023-06-14T07:57:08;11.45;;;6.10;;
22812;SDS011;11573;51.334;3.244;2023-06-14T07:59:35;9.25;;;5.85;;
22812;SDS011;11573;51.334;3.244;2023-06-14T08:02:02;13.45;;;5.50;;
22812;SDS011;11573;51.334;3.244;2023-06-14T08:04:29;10.35;;;5.60;;
22812;SDS011;11573;51.334;3.244;2023-06-14T08:06:58;10.80;;;6.47;;
22812;SDS011;11573;51.334;3.244;2023-06-14T08:09:25;16.15;;;6.90;;
22812;SDS011;11573;51.334;3.244;2023-06-14T08:11:54;16.75;;;6.95;;
22812;SDS011;11573;51.334;3.244;2023-06-14T08:14:21;17.23;;;6.45;;
22812;SDS011;11573;51.334;3.244;2023-06-14T08:16:49;12.88;;;5.90;;
22812;SDS011;11573;51.334;3.244;2023-06-14T08:19:16;11.90;;;6.30;;
22812;SDS011;11573;51.334;3.244;2023-06-14T08:21:43;13.45;;;5.78;;
22812;SDS011;11573;51.334;3.244;2023-06-14T08:24:13;12.70;;;6.18;;
22812;SDS011;11573;51.334;3.244;2023-06-14T08:26:40;15.18;;;6.95;;
22812;SDS011;11573;51.334;3.244;2023-06-14T08:29:07;14.95;;;7.07;;
22812;SDS011;11573;51.334;3.244;2023-06-14T08:31:34;16.55;;;7.90;;
22812;SDS011;11573;51.334;3.244;2023-06-14T08:34:01;16.13;;;6.68;;
22812;SDS011;11573;51.334;3.244;2023-06-14T08:36:32;18.27;;;7.45;;
22812;SDS011;11573;51.334;3.244;2023-06-14T08:38:59;10.18;;;7.00;;
22812;SDS011;11573;51.334;3.244;2023-06-14T08:41:26;15.05;;;7.07;;
22812;SDS011;11573;51.334;3.244;2023-06-14T08:43:56;14.15;;;7.35;;
22812;SDS011;11573;51.334;3.244;2023-06-14T08:46:23;22.67;;;8.52;;
22812;SDS011;11573;51.334;3.244;2023-06-14T08:48:54;17.88;;;8.73;;
22812;SDS011;11573;51.334;3.244;2023-06-14T08:51:23;14.25;;;8.93;;
22812;SDS011;11573;51.334;3.244;2023-06-14T08:53:54;17.42;;;7.90;;
22812;SDS011;11573;51.334;3.244;2023-06-14T08:56:25;13.32;;;7.95;;
22812;SDS011;11573;51.334;3.244;2023-06-14T08:58:54;11.57;;;8.05;;
22812;SDS011;11573;51.334;3.244;2023-06-14T09:01:22;12.85;;;7.97;;
22812;SDS011;11573;51.334;3.244;2023-06-14T09:03:49;13.05;;;8.38;;
22812;SDS011;11573;51.334;3.244;2023-06-14T09:06:17;13.85;;;7.88;;
22812;SDS011;11573;51.334;3.244;2023-06-14T09:08:46;14.52;;;8.25;;
22812;SDS011;11573;51.334;3.244;2023-06-14T09:11:15;14.80;;;7.10;;
22812;SDS011;11573;51.334;3.244;2023-06-14T09:13:45;15.23;;;7.45;;
22812;SDS011;11573;51.334;3.244;2023-06-14T09:16:13;22.85;;;7.63;;
22812;SDS011;11573;51.334;3.244;2023-06-14T09:18:41;20.40;;;6.32;;
22812;SDS011;11573;51.334;3.244;2023-06-14T09:21:11;24.08;;;8.10;;
22812;SDS011;11573;51.334;3.244;2023-06-14T09:23:39;13.30;;;7.43;;
22812;SDS011;11573;51.334;3.244;2023-06-14T09:26:08;11.85;;;6.97;;
22812;SDS011;11573;51.334;3.244;2023-06-14T09:28:43;13.15;;;7.68;;
22812;SDS011;11573;51.334;3.244;2023-06-14T09:31:12;11.30;;;8.10;;
22812;SDS011;11573;51.334;3.244;2023-06-14T09:33:44;14.35;;;7.85;;
22812;SDS011;11573;51.334;3.244;2023-06-14T09:36:15;12.73;;;7.20;;
22812;SDS011;11573;51.334;3.244;2023-06-14T09:38:56;16.88;;;7.88;;
22812;SDS011;11573;51.334;3.244;2023-06-14T09:41:34;14.60;;;9.15;;
22812;SDS011;11573;51.334;3.244;2023-06-14T09:44:02;13.77;;;7.65;;
22812;SDS011;11573;51.334;3.244;2023-06-14T09:46:35;14.15;;;7.93;;
22812;SDS011;11573;51.334;3.244;2023-06-14T09:49:04;16.42;;;8.23;;
22812;SDS011;11573;51.334;3.244;2023-06-14T09:51:32;13.40;;;8.68;;
22812;SDS011;11573;51.334;3.244;2023-06-14T09:54:02;17.75;;;8.55;;
22812;SDS011;11573;51.334;3.244;2023-06-14T09:59:05;11.35;;;8.32;;
22812;SDS011;11573;51.334;3.244;2023-06-14T10:01:35;15.48;;;8.32;;
22812;SDS011;11573;51.334;3.244;2023-06-14T10:06:40;12.57;;;8.35;;
22812;SDS011;11573;51.334;3.244;2023-06-14T10:09:09;17.77;;;8.82;;
22812;SDS011;11573;51.334;3.244;2023-06-14T10:11:38;11.27;;;8.57;;
22812;SDS011;11573;51.334;3.244;2023-06-14T10:14:11;16.63;;;8.43;;
22812;SDS011;11573;51.334;3.244;2023-06-14T10:16:54;11.45;;;7.80;;
22812;SDS011;11573;51.334;3.244;2023-06-14T10:19:46;13.38;;;8.27;;
22812;SDS011;11573;51.334;3.244;2023-06-14T10:22:22;17.67;;;9.30;;
22812;SDS011;11573;51.334;3.244;2023-06-14T10:24:55;16.05;;;8.35;;
22812;SDS011;11573;51.334;3.244;2023-06-14T10:27:22;14.45;;;8.00;;
22812;SDS011;11573;51.334;3.244;2023-06-14T10:32:20;15.27;;;8.32;;
22812;SDS011;11573;51.334;3.244;2023-06-14T10:34:53;18.10;;;8.98;;
22812;SDS011;11573;51.334;3.244;2023-06-14T10:37:25;17.30;;;8.73;;
22812;SDS011;11573;51.334;3.244;2023-06-14T10:39:52;15.40;;;9.43;;
22812;SDS011;11573;51.334;3.244;2023-06-14T10:42:23;12.48;;;8.52;;
22812;SDS011;11573;51.334;3.244;2023-06-14T10:45:00;14.63;;;8.45;;
22812;SDS011;11573;51.334;3.244;2023-06-14T10:47:29;17.25;;;9.15;;
22812;SDS011;11573;51.334;3.244;2023-06-14T10:50:10;12.77;;;8.23;;
22812;SDS011;11573;51.334;3.244;2023-06-14T10:52:41;16.55;;;8.07;;
22812;SDS011;11573;51.334;3.244;2023-06-14T10:57:55;20.08;;;9.35;;
22812;SDS011;11573;51.334;3.244;2023-06-14T11:00:25;13.10;;;8.20;;
22812;SDS011;11573;51.334;3.244;2023-06-14T11:05:50;20.15;;;8.25;;
22812;SDS011;11573;51.334;3.244;2023-06-14T11:11:21;16.00;;;8.52;;
22812;SDS011;11573;51.334;3.244;2023-06-14T11:13:50;22.17;;;8.93;;
22812;SDS011;11573;51.334;3.244;2023-06-14T11:16:21;18.65;;;9.50;;
22812;SDS011;11573;51.334;3.244;2023-06-14T11:18:52;18.15;;;9.18;;
22812;SDS011;11573;51.334;3.244;2023-06-14T11:21:20;15.57;;;8.90;;
22812;SDS011;11573;51.334;3.244;2023-06-14T11:23:53;14.90;;;9.48;;
22812;SDS011;11573;51.334;3.244;2023-06-14T11:26:28;18.58;;;10.20;;
22812;SDS011;11573;51.334;3.244;2023-06-14T11:28:57;17.98;;;9.65;;
22812;SDS011;11573;51.334;3.244;2023-06-14T11:31:26;14.48;;;10.10;;
22812;SDS011;11573;51.334;3.244;2023-06-14T11:33:54;18.50;;;9.48;;
22812;SDS011;11573;51.334;3.244;2023-06-14T11:36:31;17.13;;;9.48;;
22812;SDS011;11573;51.334;3.244;2023-06-14T11:39:04;14.88;;;9.38;;
22812;SDS011;11573;51.334;3.244;2023-06-14T11:41:37;17.52;;;10.30;;
22812;SDS011;11573;51.334;3.244;2023-06-14T11:44:09;14.80;;;9.77;;
22812;SDS011;11573;51.334;3.244;2023-06-14T11:46:37;15.90;;;10.60;;
22812;SDS011;11573;51.334;3.244;2023-06-14T11:49:04;17.90;;;10.65;;
22812;SDS011;11573;51.334;3.244;2023-06-14T11:51:33;19.63;;;9.63;;
22812;SDS011;11573;51.334;3.244;2023-06-14T11:54:01;24.55;;;11.27;;
22812;SDS011;11573;51.334;3.244;2023-06-14T11:56:30;20.15;;;10.73;;
22812;SDS011;11573;51.334;3.244;2023-06-14T11:58:58;17.23;;;10.38;;
22812;SDS011;11573;51.334;3.244;2023-06-14T12:01:26;16.95;;;10.68;;
22812;SDS011;11573;51.334;3.244;2023-06-14T12:03:54;15.23;;;10.07;;
22812;SDS011;11573;51.334;3.244;2023-06-14T12:06:28;17.05;;;10.50;;
22812;SDS011;11573;51.334;3.244;2023-06-14T12:08:59;17.02;;;11.10;;
22812;SDS011;11573;51.334;3.244;2023-06-14T12:11:32;16.35;;;11.02;;
22812;SDS011;11573;51.334;3.244;2023-06-14T12:14:02;15.38;;;10.05;;
22812;SDS011;11573;51.334;3.244;2023-06-14T12:16:34;27.33;;;12.10;;
22812;SDS011;11573;51.334;3.244;2023-06-14T12:19:15;14.73;;;10.97;;
22812;SDS011;11573;51.334;3.244;2023-06-14T12:21:45;19.92;;;10.70;;
22812;SDS011;11573;51.334;3.244;2023-06-14T12:24:17;15.13;;;10.25;;
22812;SDS011;11573;51.334;3.244;2023-06-14T12:26:44;20.48;;;10.85;;
22812;SDS011;11573;51.334;3.244;2023-06-14T12:29:12;23.42;;;11.13;;
22812;SDS011;11573;51.334;3.244;2023-06-14T12:31:39;18.17;;;9.90;;
22812;SDS011;11573;51.334;3.244;2023-06-14T12:34:07;18.65;;;10.90;;
22812;SDS011;11573;51.334;3.244;2023-06-14T12:36:34;18.80;;;10.63;;
22812;SDS011;11573;51.334;3.244;2023-06-14T12:39:08;16.67;;;11.15;;
22812;SDS011;11573;51.334;3.244;2023-06-14T12:41:35;18.15;;;11.70;;
22812;SDS011;11573;51.334;3.244;2023-06-14T12:44:03;21.15;;;10.75;;
22812;SDS011;11573;51.334;3.244;2023-06-14T12:46:31;15.68;;;11.00;;
22812;SDS011;11573;51.334;3.244;2023-06-14T12:48:58;14.90;;;11.20;;
22812;SDS011;11573;51.334;3.244;2023-06-14T12:51:26;20.02;;;11.07;;
22812;SDS011;11573;51.334;3.244;2023-06-14T12:53:53;17.15;;;11.35;;
22812;SDS011;11573;51.334;3.244;2023-06-14T12:56:20;17.65;;;10.25;;
22812;SDS011;11573;51.334;3.244;2023-06-14T12:58:50;18.52;;;11.25;;
22812;SDS011;11573;51.334;3.244;2023-06-14T13:01:17;19.23;;;10.75;;
22812;SDS011;11573;51.334;3.244;2023-06-14T13:03:46;23.60;;;9.88;;
22812;SDS011;11573;51.334;3.244;2023-06-14T13:06:13;15.25;;;10.15;;
22812;SDS011;11573;51.334;3.244;2023-06-14T13:08:40;18.48;;;9.52;;
22812;SDS011;11573;51.334;3.244;2023-06-14T13:11:07;12.20;;;9.65;;
22812;SDS011;11573;51.334;3.244;2023-06-14T13:13:34;14.60;;;10.30;;
22812;SDS011;11573;51.334;3.244;2023-06-14T13:16:01;18.75;;;10.15;;
22812;SDS011;11573;51.334;3.244;2023-06-14T13:18:29;14.52;;;10.35;;
22812;SDS011;11573;51.334;3.244;2023-06-14T13:20:56;15.15;;;10.35;;
22812;SDS011;11573;51.334;3.244;2023-06-14T13:23:23;18.77;;;9.70;;
22812;SDS011;11573;51.334;3.244;2023-06-14T13:25:50;15.13;;;9.80;;
22812;SDS011;11573;51.334;3.244;2023-06-14T13:28:17;18.40;;;10.07;;
22812;SDS011;11573;51.334;3.244;2023-06-14T13:30:44;22.15;;;10.40;;
22812;SDS011;11573;51.334;3.244;2023-06-14T13:33:11;22.08;;;10.45;;
22812;SDS011;11573;51.334;3.244;2023-06-14T13:35:40;18.83;;;9.60;;
22812;SDS011;11573;51.334;3.244;2023-06-14T13:38:08;22.17;;;9.68;;
22812;SDS011;11573;51.334;3.244;2023-06-14T13:40:37;22.55;;;9.73;;
22812;SDS011;11573;51.334;3.244;2023-06-14T13:43:04;15.13;;;8.63;;
22812;SDS011;11573;51.334;3.244;2023-06-14T13:45:31;17.33;;;8.85;;
22812;SDS011;11573;51.334;3.244;2023-06-14T13:47:58;20.23;;;9.05;;
22812;SDS011;11573;51.334;3.244;2023-06-14T13:50:25;16.15;;;8.13;;
22812;SDS011;11573;51.334;3.244;2023-06-14T13:52:52;17.73;;;7.80;;
22812;SDS011;11573;51.334;3.244;2023-06-14T13:55:19;14.65;;;8.32;;
22812;SDS011;11573;51.334;3.244;2023-06-14T13:57:46;17.58;;;8.65;;
22812;SDS011;11573;51.334;3.244;2023-06-14T14:00:14;15.68;;;8.27;;
22812;SDS011;11573;51.334;3.244;2023-06-14T14:02:41;14.68;;;7.28;;
22812;SDS011;11573;51.334;3.244;2023-06-14T14:05:09;12.25;;;7.47;;
22812;SDS011;11573;51.334;3.244;2023-06-14T14:07:36;11.85;;;7.18;;
22812;SDS011;11573;51.334;3.244;2023-06-14T14:10:04;13.60;;;7.55;;
22812;SDS011;11573;51.334;3.244;2023-06-14T14:12:32;13.68;;;7.03;;
22812;SDS011;11573;51.334;3.244;2023-06-14T14:14:59;15.70;;;7.80;;
22812;SDS011;11573;51.334;3.244;2023-06-14T14:17:26;12.73;;;7.07;;
22812;SDS011;11573;51.334;3.244;2023-06-14T14:19:53;13.95;;;6.50;;
22812;SDS011;11573;51.334;3.244;2023-06-14T14:22:20;17.20;;;6.65;;
22812;SDS011;11573;51.334;3.244;2023-06-14T14:24:47;14.07;;;6.43;;
22812;SDS011;11573;51.334;3.244;2023-06-14T14:27:14;13.38;;;6.82;;
22812;SDS011;11573;51.334;3.244;2023-06-14T14:29:41;16.00;;;7.22;;
22812;SDS011;11573;51.334;3.244;2023-06-14T14:32:08;10.27;;;6.20;;
22812;SDS011;11573;51.334;3.244;2023-06-14T14:34:39;10.45;;;6.13;;
22812;SDS011;11573;51.334;3.244;2023-06-14T14:37:07;11.35;;;6.45;;
22812;SDS011;11573;51.334;3.244;2023-06-14T14:39:34;10.02;;;5.90;;
22812;SDS011;11573;51.334;3.244;2023-06-14T14:42:03;10.73;;;6.00;;
22812;SDS011;11573;51.334;3.244;2023-06-14T14:44:30;14.13;;;6.15;;
22812;SDS011;11573;51.334;3.244;2023-06-14T14:46:57;10.18;;;5.30;;
22812;SDS011;11573;51.334;3.244;2023-06-14T14:49:24;11.18;;;5.53;;
22812;SDS011;11573;51.334;3.244;2023-06-14T14:51:51;13.57;;;5.30;;
22812;SDS011;11573;51.334;3.244;2023-06-14T14:54:18;11.73;;;5.68;;
22812;SDS011;11573;51.334;3.244;2023-06-14T14:56:45;10.65;;;5.10;;
22812;SDS011;11573;51.334;3.244;2023-06-14T14:59:12;8.50;;;4.75;;
22812;SDS011;11573;51.334;3.244;2023-06-14T15:01:39;11.65;;;5.05;;
22812;SDS011;11573;51.334;3.244;2023-06-14T15:04:06;14.88;;;4.72;;
22812;SDS011;11573;51.334;3.244;2023-06-14T15:06:33;12.13;;;5.38;;